KBRY

Details ICAO KBRY
Name SAMUELS FLD
Region United States
Timezone America/New_York (UTC-5.0)
Plans Departing 0
Arriving 1
Stats Elevation 669 ft / 204 m (AMSL)
Location 37.814323° -85.499638°
Runways 1
Magnetic Variation 4.931° W
Sunrise 2017-12-13 12:50:30 UTC / 2017-12-13 07:50:30 Local
Sunset 2017-12-13 22:24:58 UTC / 2017-12-13 17:24:58 Local
Advertisement - Login to hide

Runways

ID Width Length Bearing (true) Bearing (mag) Surface Threshold Offset Overrun Length
02 75 ft / 23 m 5,011 ft / 1,527 m 21.43° 26.36° Asphalt 0 ft / 0 m 0 ft / 0 m
20 75 ft / 23 m 5,011 ft / 1,527 m 201.44° 206.37° Asphalt 0 ft / 0 m 0 ft / 0 m

Map

Weather


0- 5 10 15 20 25 30 35+ Temperature / ° C

Clouds and Precipitation
Forecast for 2017-12-14 06:00 UTC. Updated 2 hours ago

Ground ~20,000 ft ~40,000 ft Winds

METAR

KBRY 140235Z AUTO 24016G21KT 10SM SCT065 SCT070 07/M05 A2961 RMK AO1

TAF

Not found

Frequencies

Recorded 119.92 MHz AWOS 3
Approach 123.67 MHz LOUISVILLE APP/DEP
Unicom 122.80 MHz CTAF/UNICOM
Approach 132.07 MHz LOUISVILLE APP/DEP
Warning: Do not use this data for real-world aviation or navigation. No guarantee of current accuracy is given.